Geervliet — PCLI — position and weather

sailwx.info

Track history (hours):
 
Tides and Currents Weather Stations Pressure Air Temp Water Temp Dewpoint Dewpoint Depression Visibility Wind Speed Wind Dir Waves Ship Positions

Geervliet

Last reported at 2017-Nov-20 00:28 UTC. Time now 2017-Nov-21 19:25 UTC.
Position N 53°24' E 014°37'.

Length 86 m; draft 4 m.

Type: Cargo ship. MMSI: 246803000.

Date/timePositionNaut miles runAvg speedWind from/ knotsBaromVisibWave heightAir tempDewpointWater temp
2017-Nov-20 00:28N 53°24' E 014°37'0 0.0
2017-Nov-19 23:58N 53°24' E 014°37'0 0.0
2017-Nov-19 23:25N 53°24' E 014°37'0 0.0
2017-Nov-19 22:49N 53°24' E 014°37'0 0.0
2017-Nov-19 22:25N 53°24' E 014°37'0 0.0
2017-Nov-19 21:58N 53°24' E 014°37'0 0.0
2017-Nov-19 21:28N 53°24' E 014°37'0 0.0
2017-Nov-19 20:25N 53°24' E 014°37'0 0.0
2017-Nov-19 19:49N 53°24' E 014°37'0 0.0
2017-Nov-19 18:43N 53°24' E 014°37'0 0.0
2017-Nov-19 18:19N 53°24' E 014°37'0 0.0
2017-Nov-19 17:40N 53°24' E 014°37'0 0.0
2017-Nov-19 17:19N 53°24' E 014°37'0 0.0
2017-Nov-19 16:40N 53°24' E 014°37'0 0.0
2017-Nov-19 16:22N 53°24' E 014°37'0 0.0
2017-Nov-19 15:55N 53°24' E 014°37'0 0.0
2017-Nov-19 15:25N 53°24' E 014°37'0 0.0
2017-Nov-19 14:58N 53°24' E 014°37'0 0.0
2017-Nov-19 14:25N 53°24' E 014°37'0 0.0
2017-Nov-19 13:43N 53°24' E 014°37'0 0.0
2017-Nov-19 13:25N 53°24' E 014°37'0 0.0
2017-Nov-19 12:55N 53°24' E 014°37'0 0.0
2017-Nov-19 12:25N 53°24' E 014°37'0 0.0
2017-Nov-19 11:55N 53°24' E 014°37'0 0.0
2017-Nov-19 11:07N 53°24' E 014°37'0 0.0
2017-Nov-19 10:49N 53°24' E 014°37'0 0.0
2017-Nov-19 10:19N 53°24' E 014°37'0 0.0
2017-Nov-19 09:55N 53°24' E 014°37'0 0.0
2017-Nov-19 09:16N 53°24' E 014°37'0 0.0
2017-Nov-19 08:37N 53°24' E 014°37'0 0.0
2017-Nov-19 08:25N 53°24' E 014°37'0 0.0
2017-Nov-19 07:58N 53°24' E 014°37'0 0.0
2017-Nov-19 07:22N 53°24' E 014°37'0 0.0
2017-Nov-19 06:58N 53°24' E 014°37'0 0.0
2017-Nov-19 06:25N 53°24' E 014°37'0 0.0
2017-Nov-19 05:52N 53°24' E 014°37'0 0.0
2017-Nov-19 05:19N 53°24' E 014°37'0 0.0
2017-Nov-19 04:55N 53°24' E 014°37'0 0.0
2017-Nov-19 04:25N 53°24' E 014°37'0 0.0
2017-Nov-19 03:58N 53°24' E 014°37'0 0.0
2017-Nov-19 03:25N 53°24' E 014°37'0 0.0
2017-Nov-19 02:58N 53°24' E 014°37'0 0.0
2017-Nov-19 02:22N 53°24' E 014°37'0 0.0
2017-Nov-19 01:55N 53°24' E 014°37'0 0.0
2017-Nov-19 01:19N 53°24' E 014°37'0 0.0
2017-Nov-19 00:49N 53°24' E 014°37'0 0.0
2017-Nov-19 00:10N 53°24' E 014°37'0 0.0
2017-Nov-18 23:07N 53°24' E 014°37'0 0.0
2017-Nov-18 22:49N 53°24' E 014°37'0 0.0
2017-Nov-18 22:25N 53°24' E 014°37'0 0.0
2017-Nov-18 21:53N 53°24' E 014°37'0 0.0
2017-Nov-18 21:26N 53°24' E 014°37'0 0.0
2017-Nov-18 20:56N 53°24' E 014°37'1 1.3
2017-Nov-18 20:29N 53°25' E 014°37'2 4.7
2017-Nov-18 19:57N 53°27' E 014°36'4 8.3
2017-Nov-18 19:26N 53°31' E 014°38'4 9.6
2017-Nov-18 18:59N 53°35' E 014°36'105 9.4
2017-Nov-18 07:54N 55°06' E 013°08'510.9
2017-Nov-18 07:28N 55°09' E 013°02'510.6
2017-Nov-18 07:01N 55°13' E 012°55'510.6
2017-Nov-18 06:31N 55°16' E 012°48'611.0
2017-Nov-18 06:00N 55°18' E 012°39'5 9.4
2017-Nov-18 05:30N 55°22' E 012°39'510.1
2017-Nov-18 05:01N 55°27' E 012°41'510.7
2017-Nov-18 04:31N 55°32' E 012°42'611.3
2017-Nov-18 04:00N 55°38' E 012°42'611.4
2017-Nov-18 03:31N 55°44' E 012°41'611.0
2017-Nov-18 03:01N 55°49' E 012°40'611.1
2017-Nov-18 02:31N 55°55' E 012°38'510.6
2017-Nov-18 02:01N 56°00' E 012°38'510.1
2017-Nov-18 01:31N 56°05' E 012°35'611.4
2017-Nov-18 01:01N 56°09' E 012°27'612.0
2017-Nov-18 00:30N 56°12' E 012°18'7710.6
2017-Nov-17 17:14N 56°57' E 010°25'310.5
2017-Nov-17 16:59N 56°58' E 010°20'4 9.5
2017-Nov-17 16:30N 56°59' E 010°12'510.1
2017-Nov-17 16:01N 57°03' E 010°05'2 2.9
2017-Nov-17 15:28N 57°03' E 010°03'0 0.0
2017-Nov-17 14:58N 57°03' E 010°03'0 0.0
2017-Nov-17 14:28N 57°03' E 010°03'0 0.0
2017-Nov-17 13:58N 57°03' E 010°03'0 0.0
2017-Nov-17 13:22N 57°03' E 010°03'0 0.0
2017-Nov-17 12:58N 57°03' E 010°03'0 0.0
2017-Nov-17 12:22N 57°03' E 010°03'0 0.0
2017-Nov-17 11:55N 57°03' E 010°03'0 0.0
2017-Nov-17 11:25N 57°03' E 010°03'0 0.0
2017-Nov-17 10:58N 57°03' E 010°03'0 0.0
2017-Nov-17 10:28N 57°03' E 010°03'0 0.0
2017-Nov-17 09:58N 57°03' E 010°03'0 0.0
2017-Nov-17 09:28N 57°03' E 010°03'0 0.0
2017-Nov-17 08:58N 57°03' E 010°03'0 0.0
2017-Nov-17 08:28N 57°03' E 010°03'0 0.0
2017-Nov-17 07:58N 57°03' E 010°03'0 0.0
2017-Nov-17 07:28N 57°03' E 010°03'0 0.0
2017-Nov-17 06:58N 57°03' E 010°03'0 0.0
2017-Nov-17 06:28N 57°03' E 010°03'0 0.0
2017-Nov-17 05:58N 57°03' E 010°03'0 0.0
2017-Nov-17 05:28N 57°03' E 010°03'0 0.0
2017-Nov-17 04:58N 57°03' E 010°03'0 0.0
2017-Nov-17 04:28N 57°03' E 010°03'0 0.0
2017-Nov-17 03:58N 57°03' E 010°03'0 0.0
2017-Nov-17 03:25N 57°03' E 010°03'0 0.0
2017-Nov-17 02:52N 57°03' E 010°03'0 0.0
2017-Nov-17 02:22N 57°03' E 010°03'0 0.0
2017-Nov-17 01:58N 57°03' E 010°03'0 0.0
2017-Nov-17 01:25N 57°03' E 010°03'0 0.0
2017-Nov-17 00:58N 57°03' E 010°03'0 0.0
2017-Nov-17 00:28N 57°03' E 010°03'0 0.0
2017-Nov-16 23:58N 57°03' E 010°03'0 0.0
2017-Nov-16 23:28N 57°03' E 010°03'0 0.0
2017-Nov-16 22:58N 57°03' E 010°03'0 0.0
2017-Nov-16 22:28N 57°03' E 010°03'0 0.0
2017-Nov-16 21:55N 57°03' E 010°03'0 0.0
2017-Nov-16 21:25N 57°03' E 010°03'0 0.0
2017-Nov-16 20:58N 57°03' E 010°03'0 0.0
2017-Nov-16 20:25N 57°03' E 010°03'0 0.0
2017-Nov-16 19:58N 57°03' E 010°03'0 0.0
2017-Nov-16 19:28N 57°03' E 010°03'0 0.0
2017-Nov-16 18:55N 57°03' E 010°03'0 0.0
2017-Nov-16 18:31N 57°03' E 010°03'1 1.0
2017-Nov-16 18:00N 57°03' E 010°03'4 7.8
2017-Nov-16 17:30N 57°01' E 010°09'4 8.5
2017-Nov-16 17:00N 56°59' E 010°16'510.0
2017-Nov-16 16:28N 56°57' E 010°25'24 8.2
2017-Nov-16 13:35N 57°19' E 010°42'1 9.8
2017-Nov-16 13:30N 57°20' E 010°42'510.1
2017-Nov-16 13:00N 57°25' E 010°41'510.0
2017-Nov-16 12:30N 57°30' E 010°39'5 9.5
2017-Nov-16 12:00N 57°34' E 010°38'5 9.5
2017-Nov-16 11:30N 57°39' E 010°37'3 5.0
2017-Nov-16 10:52N 57°42' E 010°36'0 0.0
2017-Nov-16 10:19N 57°42' E 010°36'0 0.1
2017-Nov-16 10:00N 57°42' E 010°36'3 7.1
2017-Nov-16 09:31N 57°43' E 010°42'3 6.0
2017-Nov-16 09:00N 57°46' E 010°43'611.3
2017-Nov-16 08:30N 57°46' E 010°32'611.7
2017-Nov-16 07:59N 57°44' E 010°22'511.3
2017-Nov-16 07:30N 57°42' E 010°12'611.4
2017-Nov-16 07:00N 57°40' E 010°02'41411.4
2017-Nov-14 18:47N 53°33' E 000°14'312.0
2017-Nov-14 18:30N 53°33' E 000°08'714.5
2017-Nov-14 18:00N 53°36' W 000°03'714.0
2017-Nov-14 17:31N 53°40' W 000°12'611.5
2017-Nov-14 17:00N 53°43' W 000°21'612.5
2017-Nov-14 16:30N 53°41' W 000°31'510.5
2017-Nov-14 16:00N 53°43' W 000°39'24 0.6
2017-Nov-13 01:59N 53°36' E 000°00'0 0.0
2017-Nov-13 01:29N 53°36' E 000°00'0 0.1
2017-Nov-13 00:59N 53°36' E 000°00'0 0.0
2017-Nov-13 00:29N 53°36' E 000°00'0 0.1
2017-Nov-12 23:53N 53°36' E 000°00'0 0.1
2017-Nov-12 23:26N 53°36' E 000°00'0 0.1
2017-Nov-12 22:59N 53°36' E 000°00'0 0.0
2017-Nov-12 22:29N 53°36' E 000°00'0 0.0
2017-Nov-12 21:56N 53°36' E 000°00'0 0.1
2017-Nov-12 21:23N 53°36' E 000°00'0 0.1
2017-Nov-12 20:56N 53°36' E 000°00'0 0.1
2017-Nov-12 20:29N 53°36' E 000°00'0 0.0
2017-Nov-12 19:59N 53°36' E 000°00'0 0.0
2017-Nov-12 19:20N 53°36' E 000°00'0 0.1
2017-Nov-12 18:59N 53°36' E 000°00'0 0.0
2017-Nov-12 18:29N 53°36' E 000°00'0 0.0
2017-Nov-12 17:59N 53°36' E 000°00'0 0.0
2017-Nov-12 17:26N 53°36' E 000°00'0 0.1
2017-Nov-12 16:56N 53°36' E 000°00'0 0.1
2017-Nov-12 16:23N 53°36' E 000°00'0 0.0
2017-Nov-12 15:59N 53°36' E 000°00'0 0.0
2017-Nov-12 15:29N 53°36' E 000°00'0 0.0
2017-Nov-12 14:59N 53°36' E 000°00'0 0.1
2017-Nov-12 14:29N 53°36' E 000°00'1 2.8
2017-Nov-12 14:00N 53°36' W 000°02'510.9
2017-Nov-12 13:30N 53°38' W 000°10'510.3
2017-Nov-12 13:00N 53°43' W 000°14'4 8.4
2017-Nov-12 12:30N 53°43' W 000°22'0 0.0
2017-Nov-12 12:00N 53°43' W 000°22'4 8.2
2017-Nov-12 11:31N 53°43' W 000°15'4 7.5
2017-Nov-12 11:00N 53°40' W 000°12'3 7.0
2017-Nov-12 10:30N 53°38' W 000°07'2 4.5
2017-Nov-12 10:00N 53°37' W 000°04'3 6.2
2017-Nov-12 09:30N 53°35' E 000°01'7 9.4
2017-Nov-12 08:44N 53°33' E 000°13'34 6.7
2017-Nov-12 03:36N 53°18' E 001°05'1 8.6
2017-Nov-12 03:27N 53°18' E 001°07'4 8.8
2017-Nov-12 03:00N 53°15' E 001°11'5 9.4
2017-Nov-12 02:30N 53°11' E 001°16'4 8.7
2017-Nov-12 02:01N 53°08' E 001°21'4 8.6
2017-Nov-12 01:30N 53°05' E 001°25'4 8.5
2017-Nov-12 01:00N 53°02' E 001°30'4 8.4
2017-Nov-12 00:30N 52°58' E 001°34'4 8.9
2017-Nov-12 00:01N 52°55' E 001°39'5 9.3
2017-Nov-11 23:31N 52°51' E 001°44'510.0
2017-Nov-11 23:01N 52°48' E 001°50'510.5
2017-Nov-11 22:31N 52°46' E 001°58'610.9
2017-Nov-11 22:00N 52°45' E 002°07'63 9.7
2017-Nov-11 15:30N 52°09' E 003°31'5 9.8
2017-Nov-11 15:00N 52°06' E 003°39'510.2
2017-Nov-11 14:30N 52°05' E 003°46'510.1
2017-Nov-11 14:00N 52°02' E 003°54'5 9.6
2017-Nov-11 13:31N 52°00' E 004°01'612.8
2017-Nov-11 13:00N 51°57' E 004°10'713.1
2017-Nov-11 12:30N 51°54' E 004°19'2 3.5
2017-Nov-11 12:00N 51°54' E 004°21'0 0.0
2017-Nov-11 11:30N 51°54' E 004°21'0 0.0
2017-Nov-11 11:00N 51°54' E 004°21'0 0.0
2017-Nov-11 10:30N 51°54' E 004°21'0 0.0
2017-Nov-11 10:00N 51°54' E 004°21'0 0.0
2017-Nov-11 09:30N 51°54' E 004°21'0 0.0
2017-Nov-11 09:00N 51°54' E 004°21'0 0.0
2017-Nov-11 08:30N 51°54' E 004°21'0 0.0
2017-Nov-11 08:00N 51°54' E 004°21'0 0.0
2017-Nov-11 07:30N 51°54' E 004°21'0 0.0
2017-Nov-11 07:00N 51°54' E 004°21'0 0.0
2017-Nov-11 06:30N 51°54' E 004°21'0 0.0
2017-Nov-11 06:00N 51°54' E 004°21'0 0.0
2017-Nov-11 05:30N 51°54' E 004°21'0 0.0
2017-Nov-11 05:00N 51°54' E 004°21'0 0.0
2017-Nov-11 04:30N 51°54' E 004°21'0 0.0
2017-Nov-11 04:00N 51°54' E 004°21'0 0.0
2017-Nov-11 03:30N 51°54' E 004°21'0 0.0
2017-Nov-11 03:00N 51°54' E 004°21'0 0.0
2017-Nov-11 02:30N 51°54' E 004°21'0 0.0
2017-Nov-11 02:00N 51°54' E 004°21'0 0.0
2017-Nov-11 01:30N 51°54' E 004°21'0 0.0
2017-Nov-11 01:00N 51°54' E 004°21'0 0.0
2017-Nov-11 00:30N 51°54' E 004°21'0 0.0
2017-Nov-11 00:00N 51°54' E 004°21'0 0.0
2017-Nov-10 23:30N 51°54' E 004°21'0 0.0
2017-Nov-10 23:00N 51°54' E 004°21'0 0.0
2017-Nov-10 22:00N 51°54' E 004°21'0 0.0
2017-Nov-10 21:30N 51°54' E 004°21'0 0.0
2017-Nov-10 21:00N 51°54' E 004°21'0 0.0
2017-Nov-10 20:30N 51°54' E 004°21'0 0.1
2017-Nov-10 20:00N 51°54' E 004°21'0 0.8
2017-Nov-10 19:30N 51°54' E 004°21'2 4.9
2017-Nov-10 19:00N 51°51' E 004°21'3 5.5
2017-Nov-10 18:30N 51°51' E 004°25'4 7.5
2017-Nov-10 18:00N 51°50' E 004°31'4 7.6
2017-Nov-10 17:30N 51°48' E 004°36'5 9.2
2017-Nov-10 17:00N 51°44' E 004°38'2 4.4
2017-Nov-10 16:30N 51°42' E 004°36'0 0.0
2017-Nov-10 16:00N 51°42' E 004°36'0 0.0
2017-Nov-10 15:27N 51°42' E 004°36'0 0.0
2017-Nov-10 14:54N 51°42' E 004°36'0 0.0
2017-Nov-10 14:27N 51°42' E 004°36'0 0.0
2017-Nov-10 14:00N 51°42' E 004°36'0 0.0
2017-Nov-10 13:27N 51°42' E 004°36'0 0.0
2017-Nov-10 12:57N 51°42' E 004°36'0 0.0
2017-Nov-10 12:30N 51°42' E 004°36'0 0.0
2017-Nov-10 12:00N 51°42' E 004°36'0 0.0
2017-Nov-10 11:18N 51°42' E 004°36'0 0.0
2017-Nov-10 10:48N 51°42' E 004°36'0 0.0
2017-Nov-10 10:21N 51°42' E 004°36'0 0.0
2017-Nov-10 10:00N 51°42' E 004°36'0 0.0
2017-Nov-10 09:30N 51°42' E 004°36'0 0.0
2017-Nov-10 08:57N 51°42' E 004°36'0 0.0
2017-Nov-10 08:30N 51°42' E 004°36'0 0.0
2017-Nov-10 07:57N 51°42' E 004°36'0 0.0
2017-Nov-10 07:30N 51°42' E 004°36'0 0.0
2017-Nov-10 07:00N 51°42' E 004°36'0 0.0
2017-Nov-10 06:24N 51°42' E 004°36'0 0.0
2017-Nov-10 06:00N 51°42' E 004°36'0 0.0
2017-Nov-10 05:30N 51°42' E 004°36'0 0.0
2017-Nov-10 05:00N 51°42' E 004°36'0 0.0
2017-Nov-10 04:30N 51°42' E 004°36'0 0.0
2017-Nov-10 04:00N 51°42' E 004°36'0 0.0
2017-Nov-10 03:30N 51°42' E 004°36'0 0.0
2017-Nov-10 03:00N 51°42' E 004°36'0 0.0
2017-Nov-10 02:30N 51°42' E 004°36'0 0.0
2017-Nov-10 02:00N 51°42' E 004°36'0 0.0
2017-Nov-10 01:30N 51°42' E 004°36'0 0.0
2017-Nov-10 01:00N 51°42' E 004°36'0 0.0
2017-Nov-10 00:30N 51°42' E 004°36'  
Track history (hours):
 
Tides and Currents Weather Stations Pressure Air Temp Water Temp Dewpoint Dewpoint Depression Visibility Wind Speed Wind Dir Waves Ship Positions

Geervliet

Last reported at 2017-Nov-20 00:28 UTC. Time now 2017-Nov-21 19:25 UTC.
Position N 53°24' E 014°37'.

Length 86 m; draft 4 m.

Type: Cargo ship. MMSI: 246803000.

Date/timePositionNaut miles runAvg speedWind from/ knotsBaromVisibWave heightAir tempDewpointWater temp
2017-Nov-20 00:28N 53°24' E 014°37'0 0.0
2017-Nov-19 23:58N 53°24' E 014°37'0 0.0
2017-Nov-19 23:25N 53°24' E 014°37'0 0.0
2017-Nov-19 22:49N 53°24' E 014°37'0 0.0
2017-Nov-19 22:25N 53°24' E 014°37'0 0.0
2017-Nov-19 21:58N 53°24' E 014°37'0 0.0
2017-Nov-19 21:28N 53°24' E 014°37'0 0.0
2017-Nov-19 20:25N 53°24' E 014°37'0 0.0
2017-Nov-19 19:49N 53°24' E 014°37'0 0.0
2017-Nov-19 18:43N 53°24' E 014°37'0 0.0
2017-Nov-19 18:19N 53°24' E 014°37'0 0.0
2017-Nov-19 17:40N 53°24' E 014°37'0 0.0
2017-Nov-19 17:19N 53°24' E 014°37'0 0.0
2017-Nov-19 16:40N 53°24' E 014°37'0 0.0
2017-Nov-19 16:22N 53°24' E 014°37'0 0.0
2017-Nov-19 15:55N 53°24' E 014°37'0 0.0
2017-Nov-19 15:25N 53°24' E 014°37'0 0.0
2017-Nov-19 14:58N 53°24' E 014°37'0 0.0
2017-Nov-19 14:25N 53°24' E 014°37'0 0.0
2017-Nov-19 13:43N 53°24' E 014°37'0 0.0
2017-Nov-19 13:25N 53°24' E 014°37'0 0.0
2017-Nov-19 12:55N 53°24' E 014°37'0 0.0
2017-Nov-19 12:25N 53°24' E 014°37'0 0.0
2017-Nov-19 11:55N 53°24' E 014°37'0 0.0
2017-Nov-19 11:07N 53°24' E 014°37'0 0.0
2017-Nov-19 10:49N 53°24' E 014°37'0 0.0
2017-Nov-19 10:19N 53°24' E 014°37'0 0.0
2017-Nov-19 09:55N 53°24' E 014°37'0 0.0
2017-Nov-19 09:16N 53°24' E 014°37'0 0.0
2017-Nov-19 08:37N 53°24' E 014°37'0 0.0
2017-Nov-19 08:25N 53°24' E 014°37'0 0.0
2017-Nov-19 07:58N 53°24' E 014°37'0 0.0
2017-Nov-19 07:22N 53°24' E 014°37'0 0.0
2017-Nov-19 06:58N 53°24' E 014°37'0 0.0
2017-Nov-19 06:25N 53°24' E 014°37'0 0.0
2017-Nov-19 05:52N 53°24' E 014°37'0 0.0
2017-Nov-19 05:19N 53°24' E 014°37'0 0.0
2017-Nov-19 04:55N 53°24' E 014°37'0 0.0
2017-Nov-19 04:25N 53°24' E 014°37'0 0.0
2017-Nov-19 03:58N 53°24' E 014°37'0 0.0
2017-Nov-19 03:25N 53°24' E 014°37'0 0.0
2017-Nov-19 02:58N 53°24' E 014°37'0 0.0
2017-Nov-19 02:22N 53°24' E 014°37'0 0.0
2017-Nov-19 01:55N 53°24' E 014°37'0 0.0
2017-Nov-19 01:19N 53°24' E 014°37'0 0.0
2017-Nov-19 00:49N 53°24' E 014°37'0 0.0
2017-Nov-19 00:10N 53°24' E 014°37'0 0.0
2017-Nov-18 23:07N 53°24' E 014°37'0 0.0
2017-Nov-18 22:49N 53°24' E 014°37'0 0.0
2017-Nov-18 22:25N 53°24' E 014°37'0 0.0
2017-Nov-18 21:53N 53°24' E 014°37'0 0.0
2017-Nov-18 21:26N 53°24' E 014°37'0 0.0
2017-Nov-18 20:56N 53°24' E 014°37'1 1.3
2017-Nov-18 20:29N 53°25' E 014°37'2 4.7
2017-Nov-18 19:57N 53°27' E 014°36'4 8.3
2017-Nov-18 19:26N 53°31' E 014°38'4 9.6
2017-Nov-18 18:59N 53°35' E 014°36'105 9.4
2017-Nov-18 07:54N 55°06' E 013°08'510.9
2017-Nov-18 07:28N 55°09' E 013°02'510.6
2017-Nov-18 07:01N 55°13' E 012°55'510.6
2017-Nov-18 06:31N 55°16' E 012°48'611.0
2017-Nov-18 06:00N 55°18' E 012°39'5 9.4
2017-Nov-18 05:30N 55°22' E 012°39'510.1
2017-Nov-18 05:01N 55°27' E 012°41'510.7
2017-Nov-18 04:31N 55°32' E 012°42'611.3
2017-Nov-18 04:00N 55°38' E 012°42'611.4
2017-Nov-18 03:31N 55°44' E 012°41'611.0
2017-Nov-18 03:01N 55°49' E 012°40'611.1
2017-Nov-18 02:31N 55°55' E 012°38'510.6
2017-Nov-18 02:01N 56°00' E 012°38'510.1
2017-Nov-18 01:31N 56°05' E 012°35'611.4
2017-Nov-18 01:01N 56°09' E 012°27'612.0
2017-Nov-18 00:30N 56°12' E 012°18'7710.6
2017-Nov-17 17:14N 56°57' E 010°25'310.5
2017-Nov-17 16:59N 56°58' E 010°20'4 9.5
2017-Nov-17 16:30N 56°59' E 010°12'510.1
2017-Nov-17 16:01N 57°03' E 010°05'2 2.9
2017-Nov-17 15:28N 57°03' E 010°03'0 0.0
2017-Nov-17 14:58N 57°03' E 010°03'0 0.0
2017-Nov-17 14:28N 57°03' E 010°03'0 0.0
2017-Nov-17 13:58N 57°03' E 010°03'0 0.0
2017-Nov-17 13:22N 57°03' E 010°03'0 0.0
2017-Nov-17 12:58N 57°03' E 010°03'0 0.0
2017-Nov-17 12:22N 57°03' E 010°03'0 0.0
2017-Nov-17 11:55N 57°03' E 010°03'0 0.0
2017-Nov-17 11:25N 57°03' E 010°03'0 0.0
2017-Nov-17 10:58N 57°03' E 010°03'0 0.0
2017-Nov-17 10:28N 57°03' E 010°03'0 0.0
2017-Nov-17 09:58N 57°03' E 010°03'0 0.0
2017-Nov-17 09:28N 57°03' E 010°03'0 0.0
2017-Nov-17 08:58N 57°03' E 010°03'0 0.0
2017-Nov-17 08:28N 57°03' E 010°03'0 0.0
2017-Nov-17 07:58N 57°03' E 010°03'0 0.0
2017-Nov-17 07:28N 57°03' E 010°03'0 0.0
2017-Nov-17 06:58N 57°03' E 010°03'0 0.0
2017-Nov-17 06:28N 57°03' E 010°03'0 0.0
2017-Nov-17 05:58N 57°03' E 010°03'0 0.0
2017-Nov-17 05:28N 57°03' E 010°03'0 0.0
2017-Nov-17 04:58N 57°03' E 010°03'0 0.0
2017-Nov-17 04:28N 57°03' E 010°03'0 0.0
2017-Nov-17 03:58N 57°03' E 010°03'0 0.0
2017-Nov-17 03:25N 57°03' E 010°03'0 0.0
2017-Nov-17 02:52N 57°03' E 010°03'0 0.0
2017-Nov-17 02:22N 57°03' E 010°03'0 0.0
2017-Nov-17 01:58N 57°03' E 010°03'0 0.0
2017-Nov-17 01:25N 57°03' E 010°03'0 0.0
2017-Nov-17 00:58N 57°03' E 010°03'0 0.0
2017-Nov-17 00:28N 57°03' E 010°03'0 0.0
2017-Nov-16 23:58N 57°03' E 010°03'0 0.0
2017-Nov-16 23:28N 57°03' E 010°03'0 0.0
2017-Nov-16 22:58N 57°03' E 010°03'0 0.0
2017-Nov-16 22:28N 57°03' E 010°03'0 0.0
2017-Nov-16 21:55N 57°03' E 010°03'0 0.0
2017-Nov-16 21:25N 57°03' E 010°03'0 0.0
2017-Nov-16 20:58N 57°03' E 010°03'0 0.0
2017-Nov-16 20:25N 57°03' E 010°03'0 0.0
2017-Nov-16 19:58N 57°03' E 010°03'0 0.0
2017-Nov-16 19:28N 57°03' E 010°03'0 0.0
2017-Nov-16 18:55N 57°03' E 010°03'0 0.0
2017-Nov-16 18:31N 57°03' E 010°03'1 1.0
2017-Nov-16 18:00N 57°03' E 010°03'4 7.8
2017-Nov-16 17:30N 57°01' E 010°09'4 8.5
2017-Nov-16 17:00N 56°59' E 010°16'510.0
2017-Nov-16 16:28N 56°57' E 010°25'24 8.2
2017-Nov-16 13:35N 57°19' E 010°42'1 9.8
2017-Nov-16 13:30N 57°20' E 010°42'510.1
2017-Nov-16 13:00N 57°25' E 010°41'510.0
2017-Nov-16 12:30N 57°30' E 010°39'5 9.5
2017-Nov-16 12:00N 57°34' E 010°38'5 9.5
2017-Nov-16 11:30N 57°39' E 010°37'3 5.0
2017-Nov-16 10:52N 57°42' E 010°36'0 0.0
2017-Nov-16 10:19N 57°42' E 010°36'0 0.1
2017-Nov-16 10:00N 57°42' E 010°36'3 7.1
2017-Nov-16 09:31N 57°43' E 010°42'3 6.0
2017-Nov-16 09:00N 57°46' E 010°43'611.3
2017-Nov-16 08:30N 57°46' E 010°32'611.7
2017-Nov-16 07:59N 57°44' E 010°22'511.3
2017-Nov-16 07:30N 57°42' E 010°12'611.4
2017-Nov-16 07:00N 57°40' E 010°02'41411.4
2017-Nov-14 18:47N 53°33' E 000°14'312.0
2017-Nov-14 18:30N 53°33' E 000°08'714.5
2017-Nov-14 18:00N 53°36' W 000°03'714.0
2017-Nov-14 17:31N 53°40' W 000°12'611.5
2017-Nov-14 17:00N 53°43' W 000°21'612.5
2017-Nov-14 16:30N 53°41' W 000°31'510.5
2017-Nov-14 16:00N 53°43' W 000°39'24 0.6
2017-Nov-13 01:59N 53°36' E 000°00'0 0.0
2017-Nov-13 01:29N 53°36' E 000°00'0 0.1
2017-Nov-13 00:59N 53°36' E 000°00'0 0.0
2017-Nov-13 00:29N 53°36' E 000°00'0 0.1
2017-Nov-12 23:53N 53°36' E 000°00'0 0.1
2017-Nov-12 23:26N 53°36' E 000°00'0 0.1
2017-Nov-12 22:59N 53°36' E 000°00'0 0.0
2017-Nov-12 22:29N 53°36' E 000°00'0 0.0
2017-Nov-12 21:56N 53°36' E 000°00'0 0.1
2017-Nov-12 21:23N 53°36' E 000°00'0 0.1
2017-Nov-12 20:56N 53°36' E 000°00'0 0.1
2017-Nov-12 20:29N 53°36' E 000°00'0 0.0
2017-Nov-12 19:59N 53°36' E 000°00'0 0.0
2017-Nov-12 19:20N 53°36' E 000°00'0 0.1
2017-Nov-12 18:59N 53°36' E 000°00'0 0.0
2017-Nov-12 18:29N 53°36' E 000°00'0 0.0
2017-Nov-12 17:59N 53°36' E 000°00'0 0.0
2017-Nov-12 17:26N 53°36' E 000°00'0 0.1
2017-Nov-12 16:56N 53°36' E 000°00'0 0.1
2017-Nov-12 16:23N 53°36' E 000°00'0 0.0
2017-Nov-12 15:59N 53°36' E 000°00'0 0.0
2017-Nov-12 15:29N 53°36' E 000°00'0 0.0
2017-Nov-12 14:59N 53°36' E 000°00'0 0.1
2017-Nov-12 14:29N 53°36' E 000°00'1 2.8
2017-Nov-12 14:00N 53°36' W 000°02'510.9
2017-Nov-12 13:30N 53°38' W 000°10'510.3
2017-Nov-12 13:00N 53°43' W 000°14'4 8.4
2017-Nov-12 12:30N 53°43' W 000°22'0 0.0
2017-Nov-12 12:00N 53°43' W 000°22'4 8.2
2017-Nov-12 11:31N 53°43' W 000°15'4 7.5
2017-Nov-12 11:00N 53°40' W 000°12'3 7.0
2017-Nov-12 10:30N 53°38' W 000°07'2 4.5
2017-Nov-12 10:00N 53°37' W 000°04'3 6.2
2017-Nov-12 09:30N 53°35' E 000°01'7 9.4
2017-Nov-12 08:44N 53°33' E 000°13'34 6.7
2017-Nov-12 03:36N 53°18' E 001°05'1 8.6
2017-Nov-12 03:27N 53°18' E 001°07'4 8.8
2017-Nov-12 03:00N 53°15' E 001°11'5 9.4
2017-Nov-12 02:30N 53°11' E 001°16'4 8.7
2017-Nov-12 02:01N 53°08' E 001°21'4 8.6
2017-Nov-12 01:30N 53°05' E 001°25'4 8.5
2017-Nov-12 01:00N 53°02' E 001°30'4 8.4
2017-Nov-12 00:30N 52°58' E 001°34'4 8.9
2017-Nov-12 00:01N 52°55' E 001°39'5 9.3
2017-Nov-11 23:31N 52°51' E 001°44'510.0
2017-Nov-11 23:01N 52°48' E 001°50'510.5
2017-Nov-11 22:31N 52°46' E 001°58'610.9
2017-Nov-11 22:00N 52°45' E 002°07'63 9.7
2017-Nov-11 15:30N 52°09' E 003°31'5 9.8
2017-Nov-11 15:00N 52°06' E 003°39'510.2
2017-Nov-11 14:30N 52°05' E 003°46'510.1
2017-Nov-11 14:00N 52°02' E 003°54'5 9.6
2017-Nov-11 13:31N 52°00' E 004°01'612.8
2017-Nov-11 13:00N 51°57' E 004°10'713.1
2017-Nov-11 12:30N 51°54' E 004°19'2 3.5
2017-Nov-11 12:00N 51°54' E 004°21'0 0.0
2017-Nov-11 11:30N 51°54' E 004°21'0 0.0
2017-Nov-11 11:00N 51°54' E 004°21'0 0.0
2017-Nov-11 10:30N 51°54' E 004°21'0 0.0
2017-Nov-11 10:00N 51°54' E 004°21'0 0.0
2017-Nov-11 09:30N 51°54' E 004°21'0 0.0
2017-Nov-11 09:00N 51°54' E 004°21'0 0.0
2017-Nov-11 08:30N 51°54' E 004°21'0 0.0
2017-Nov-11 08:00N 51°54' E 004°21'0 0.0
2017-Nov-11 07:30N 51°54' E 004°21'0 0.0
2017-Nov-11 07:00N 51°54' E 004°21'0 0.0
2017-Nov-11 06:30N 51°54' E 004°21'0 0.0
2017-Nov-11 06:00N 51°54' E 004°21'0 0.0
2017-Nov-11 05:30N 51°54' E 004°21'0 0.0
2017-Nov-11 05:00N 51°54' E 004°21'0 0.0
2017-Nov-11 04:30N 51°54' E 004°21'0 0.0
2017-Nov-11 04:00N 51°54' E 004°21'0 0.0
2017-Nov-11 03:30N 51°54' E 004°21'0 0.0
2017-Nov-11 03:00N 51°54' E 004°21'0 0.0
2017-Nov-11 02:30N 51°54' E 004°21'0 0.0
2017-Nov-11 02:00N 51°54' E 004°21'0 0.0
2017-Nov-11 01:30N 51°54' E 004°21'0 0.0
2017-Nov-11 01:00N 51°54' E 004°21'0 0.0
2017-Nov-11 00:30N 51°54' E 004°21'0 0.0
2017-Nov-11 00:00N 51°54' E 004°21'0 0.0
2017-Nov-10 23:30N 51°54' E 004°21'0 0.0
2017-Nov-10 23:00N 51°54' E 004°21'0 0.0
2017-Nov-10 22:00N 51°54' E 004°21'0 0.0
2017-Nov-10 21:30N 51°54' E 004°21'0 0.0
2017-Nov-10 21:00N 51°54' E 004°21'0 0.0
2017-Nov-10 20:30N 51°54' E 004°21'0 0.1
2017-Nov-10 20:00N 51°54' E 004°21'0 0.8
2017-Nov-10 19:30N 51°54' E 004°21'2 4.9
2017-Nov-10 19:00N 51°51' E 004°21'3 5.5
2017-Nov-10 18:30N 51°51' E 004°25'4 7.5
2017-Nov-10 18:00N 51°50' E 004°31'4 7.6
2017-Nov-10 17:30N 51°48' E 004°36'5 9.2
2017-Nov-10 17:00N 51°44' E 004°38'2 4.4
2017-Nov-10 16:30N 51°42' E 004°36'0 0.0
2017-Nov-10 16:00N 51°42' E 004°36'0 0.0
2017-Nov-10 15:27N 51°42' E 004°36'0 0.0
2017-Nov-10 14:54N 51°42' E 004°36'0 0.0
2017-Nov-10 14:27N 51°42' E 004°36'0 0.0
2017-Nov-10 14:00N 51°42' E 004°36'0 0.0
2017-Nov-10 13:27N 51°42' E 004°36'0 0.0
2017-Nov-10 12:57N 51°42' E 004°36'0 0.0
2017-Nov-10 12:30N 51°42' E 004°36'0 0.0
2017-Nov-10 12:00N 51°42' E 004°36'0 0.0
2017-Nov-10 11:18N 51°42' E 004°36'0 0.0
2017-Nov-10 10:48N 51°42' E 004°36'0 0.0
2017-Nov-10 10:21N 51°42' E 004°36'0 0.0
2017-Nov-10 10:00N 51°42' E 004°36'0 0.0
2017-Nov-10 09:30N 51°42' E 004°36'0 0.0
2017-Nov-10 08:57N 51°42' E 004°36'0 0.0
2017-Nov-10 08:30N 51°42' E 004°36'0 0.0
2017-Nov-10 07:57N 51°42' E 004°36'0 0.0
2017-Nov-10 07:30N 51°42' E 004°36'0 0.0
2017-Nov-10 07:00N 51°42' E 004°36'0 0.0
2017-Nov-10 06:24N 51°42' E 004°36'0 0.0
2017-Nov-10 06:00N 51°42' E 004°36'0 0.0
2017-Nov-10 05:30N 51°42' E 004°36'0 0.0
2017-Nov-10 05:00N 51°42' E 004°36'0 0.0
2017-Nov-10 04:30N 51°42' E 004°36'0 0.0
2017-Nov-10 04:00N 51°42' E 004°36'0 0.0
2017-Nov-10 03:30N 51°42' E 004°36'0 0.0
2017-Nov-10 03:00N 51°42' E 004°36'0 0.0
2017-Nov-10 02:30N 51°42' E 004°36'0 0.0
2017-Nov-10 02:00N 51°42' E 004°36'0 0.0
2017-Nov-10 01:30N 51°42' E 004°36'0 0.0
2017-Nov-10 01:00N 51°42' E 004°36'0 0.0
2017-Nov-10 00:30N 51°42' E 004°36'  

Dump ship's entire track history